Time;durP1;ratioP1;P1;durP2;ratioP2;P2;SDS_P1;SDS_P2;PMS_P1;PMS_P2;Temp;Humidity;BMP_temperature;BMP_pressure;BME280_temperature;BME280_humidity;BME280_pressure;Samples;Min_cycle;Max_cycle;Signal;HPM_P1;HPM_P2
2024/03/04 00:01:31;;;;;;;14.25;10.10;;;10.00;99.90;;;;;;5029782;28;20045;-49
2024/03/04 00:03:57;;;;;;;14.05;9.60;;;10.00;99.90;;;;;;5048154;28;20382;-50
2024/03/04 00:06:22;;;;;;;13.85;10.25;;;10.00;99.90;;;;;;5048095;28;20508;-50
2024/03/04 00:08:48;;;;;;;16.00;9.00;;;10.00;99.90;;;;;;5049812;28;20029;-46
2024/03/04 00:11:14;;;;;;;13.63;9.32;;;10.00;99.90;;;;;;5049357;28;20029;-48
2024/03/04 00:13:39;;;;;;;14.60;9.57;;;10.00;99.90;;;;;;5050141;28;20412;-51
2024/03/04 00:16:05;;;;;;;13.27;10.05;;;10.00;99.90;;;;;;5049824;28;20044;-46
2024/03/04 00:18:31;;;;;;;13.38;9.43;;;10.00;99.90;;;;;;5049604;28;20036;-50
2024/03/04 00:20:58;;;;;;;12.75;9.18;;;10.00;99.90;;;;;;5048508;28;20116;-49
2024/03/04 00:23:24;;;;;;;13.13;8.55;;;10.00;99.90;;;;;;5047937;28;20408;-54
2024/03/04 00:25:50;;;;;;;13.57;9.50;;;9.90;99.90;;;;;;5049497;28;20029;-51
2024/03/04 00:28:15;;;;;;;16.17;10.27;;;9.90;99.90;;;;;;5049492;28;20025;-48
2024/03/04 00:30:44;;;;;;;18.77;12.82;;;9.90;99.90;;;;;;5049346;28;20206;-48
2024/03/04 00:33:10;;;;;;;15.23;11.43;;;9.90;99.90;;;;;;5049660;28;20024;-45
2024/03/04 00:35:36;;;;;;;20.20;12.95;;;9.80;99.90;;;;;;5049504;28;20332;-47
2024/03/04 00:38:02;;;;;;;17.58;11.43;;;9.70;99.90;;;;;;5052239;28;20552;-55
2024/03/04 00:40:28;;;;;;;13.00;10.40;;;9.70;99.90;;;;;;5069370;28;20031;-50
2024/03/04 00:42:53;;;;;;;14.68;9.27;;;9.60;99.90;;;;;;5064454;28;20381;-50
2024/03/04 00:45:19;;;;;;;15.13;10.20;;;9.50;99.90;;;;;;5049343;28;20021;-50
2024/03/04 00:47:45;;;;;;;14.85;9.88;;;9.40;99.90;;;;;;5044278;28;20508;-50
2024/03/04 00:50:10;;;;;;;11.70;9.20;;;9.40;99.90;;;;;;5041715;28;20448;-48
2024/03/04 00:52:37;;;;;;;12.60;10.00;;;9.30;99.90;;;;;;5029122;28;20118;-53
2024/03/04 00:55:04;;;;;;;16.55;10.70;;;9.30;99.90;;;;;;5029236;28;20036;-54
2024/03/04 00:57:30;;;;;;;16.10;11.15;;;9.20;99.90;;;;;;5046377;28;20036;-51
2024/03/04 00:59:57;;;;;;;16.20;10.50;;;9.20;99.90;;;;;;5048558;28;20403;-53
2024/03/04 01:02:22;;;;;;;14.05;9.35;;;9.20;99.90;;;;;;5048735;28;20036;-51
2024/03/04 01:04:48;;;;;;;16.08;10.20;;;9.10;99.90;;;;;;5047357;28;20491;-48
2024/03/04 01:07:14;;;;;;;14.75;9.88;;;9.10;99.90;;;;;;5045807;28;20504;-47
2024/03/04 01:09:40;;;;;;;14.20;9.65;;;9.10;99.90;;;;;;5046921;28;20032;-48
2024/03/04 01:12:06;;;;;;;13.80;10.15;;;9.10;99.90;;;;;;5049624;28;20021;-55
2024/03/04 01:14:31;;;;;;;12.70;9.85;;;9.10;99.90;;;;;;5049862;28;20031;-54
2024/03/04 01:16:57;;;;;;;12.45;9.68;;;9.10;99.90;;;;;;5051366;28;20492;-53
2024/03/04 01:19:23;;;;;;;16.63;11.60;;;9.00;99.90;;;;;;5051243;28;20083;-51
2024/03/04 01:21:49;;;;;;;16.90;10.23;;;9.00;99.90;;;;;;5051423;28;20055;-48
2024/03/04 01:24:18;;;;;;;16.00;11.20;;;9.00;99.90;;;;;;5051108;28;20029;-50
2024/03/04 01:26:44;;;;;;;16.05;11.02;;;9.00;99.90;;;;;;5051793;28;20388;-54
2024/03/04 01:29:10;;;;;;;15.88;10.65;;;9.00;99.90;;;;;;5050036;28;20017;-49
2024/03/04 01:31:35;;;;;;;17.75;12.95;;;9.00;99.90;;;;;;5051341;28;20029;-47
2024/03/04 01:34:04;;;;;;;24.75;14.07;;;9.00;99.90;;;;;;5051565;28;20115;-50
2024/03/04 01:36:30;;;;;;;23.95;14.02;;;9.10;99.90;;;;;;5050036;28;20104;-53
2024/03/04 01:38:55;;;;;;;23.85;14.38;;;9.10;99.90;;;;;;5051324;28;20105;-52
2024/03/04 01:41:21;;;;;;;21.98;15.93;;;9.10;99.90;;;;;;5049901;28;20033;-50
2024/03/04 01:43:46;;;;;;;28.00;18.65;;;9.10;99.90;;;;;;5049997;28;20025;-50
2024/03/04 01:46:12;;;;;;;33.53;20.13;;;9.20;99.90;;;;;;5051332;28;20088;-49
2024/03/04 01:48:39;;;;;;;33.40;20.10;;;9.30;99.90;;;;;;5051308;28;20021;-50
2024/03/04 01:51:06;;;;;;;37.42;23.05;;;9.40;99.90;;;;;;5051223;28;20036;-46
2024/03/04 01:53:32;;;;;;;36.33;23.42;;;9.40;99.90;;;;;;5050079;28;20120;-50
2024/03/04 01:56:02;;;;;;;35.80;22.80;;;9.40;99.90;;;;;;5051120;28;20437;-50
2024/03/04 01:58:30;;;;;;;40.22;23.65;;;9.40;99.90;;;;;;5051044;28;20036;-49
2024/03/04 02:00:57;;;;;;;38.30;23.00;;;9.40;99.90;;;;;;5066197;23;20041;-56
2024/03/04 02:03:23;;;;;;;36.33;23.35;;;9.40;99.90;;;;;;5031556;28;20092;-53
2024/03/04 02:05:49;;;;;;;34.10;23.40;;;9.30;99.90;;;;;;5013406;28;20029;-54
2024/03/04 02:08:19;;;;;;;36.35;22.67;;;9.30;99.90;;;;;;5013300;28;20025;-53
2024/03/04 02:10:46;;;;;;;38.45;23.70;;;9.30;99.90;;;;;;5014596;28;20216;-55
2024/03/04 02:13:12;;;;;;;41.95;25.95;;;9.40;99.90;;;;;;5046088;28;20026;-56
2024/03/04 02:15:38;;;;;;;41.78;26.73;;;9.40;99.90;;;;;;5031107;28;20029;-57
2024/03/04 02:18:07;;;;;;;37.45;25.65;;;9.30;99.90;;;;;;5029398;28;20423;-53
2024/03/04 02:20:42;;;;;;;47.33;27.77;;;9.30;99.90;;;;;;5030814;28;20135;-53
2024/03/04 02:23:09;;;;;;;41.88;26.40;;;9.40;99.90;;;;;;5031064;28;20025;-53
2024/03/04 02:25:36;;;;;;;42.67;24.15;;;9.30;99.90;;;;;;5031306;28;20029;-53
2024/03/04 02:28:02;;;;;;;42.13;25.52;;;9.30;99.90;;;;;;5030985;28;20030;-53
2024/03/04 02:30:32;;;;;;;37.25;24.50;;;9.30;99.90;;;;;;5029620;28;20033;-53
2024/03/04 02:33:03;;;;;;;38.42;25.88;;;9.30;99.90;;;;;;5030991;28;20044;-52
2024/03/04 02:35:33;;;;;;;43.78;27.35;;;9.20;99.90;;;;;;5032720;28;20026;-56
2024/03/04 02:37:59;;;;;;;46.58;27.85;;;9.20;99.90;;;;;;5034380;28;20049;-53
2024/03/04 02:40:24;;;;;;;48.00;30.25;;;9.20;99.90;;;;;;5034254;28;20116;-50
2024/03/04 02:42:50;;;;;;;46.38;29.15;;;9.20;99.90;;;;;;5034328;28;20548;-50
2024/03/04 02:45:16;;;;;;;48.25;28.80;;;9.20;99.90;;;;;;5034492;28;20060;-53
2024/03/04 02:47:41;;;;;;;48.25;29.50;;;9.20;99.90;;;;;;5034376;28;20029;-56
2024/03/04 02:50:07;;;;;;;52.60;31.55;;;9.20;99.90;;;;;;5032861;28;20071;-54
2024/03/04 02:52:33;;;;;;;53.10;31.48;;;9.10;99.90;;;;;;5034165;28;20442;-51
2024/03/04 02:54:59;;;;;;;51.53;32.22;;;9.20;99.90;;;;;;5034219;28;20136;-54
2024/03/04 02:57:24;;;;;;;55.40;33.05;;;9.10;99.90;;;;;;5034194;28;20504;-52
2024/03/04 02:59:50;;;;;;;59.78;35.53;;;9.20;99.90;;;;;;5034090;28;20074;-54
2024/03/04 03:02:17;;;;;;;55.33;34.00;;;9.20;99.90;;;;;;5032652;28;20489;-58
2024/03/04 03:04:43;;;;;;;59.72;34.97;;;9.20;99.90;;;;;;5034419;28;20025;-54
2024/03/04 03:07:08;;;;;;;56.63;34.92;;;9.20;99.90;;;;;;5033953;28;20028;-54
2024/03/04 03:09:34;;;;;;;57.72;33.92;;;9.10;99.90;;;;;;5033908;28;20105;-58
2024/03/04 03:11:59;;;;;;;59.38;35.67;;;9.10;99.90;;;;;;5033572;28;20532;-54
2024/03/04 03:14:25;;;;;;;55.78;34.85;;;9.10;99.90;;;;;;5033885;28;20033;-55
2024/03/04 03:16:51;;;;;;;63.67;37.60;;;9.10;99.90;;;;;;5033823;28;20366;-56
2024/03/04 03:19:25;;;;;;;62.88;37.28;;;9.10;99.90;;;;;;5032154;28;20033;-52
2024/03/04 03:21:53;;;;;;;59.10;36.38;;;9.10;99.90;;;;;;5033708;28;20374;-55
2024/03/04 03:24:19;;;;;;;62.20;34.75;;;9.10;99.90;;;;;;5033716;28;20017;-54
2024/03/04 03:26:46;;;;;;;56.45;34.53;;;9.10;99.90;;;;;;5033475;28;20087;-54
2024/03/04 03:29:12;;;;;;;64.28;37.63;;;9.10;99.90;;;;;;5033842;28;20064;-55
2024/03/04 03:31:38;;;;;;;65.53;39.47;;;9.00;99.90;;;;;;5034125;28;20041;-53
2024/03/04 03:34:03;;;;;;;72.55;40.90;;;9.00;99.90;;;;;;5032252;28;20422;-56
2024/03/04 03:36:29;;;;;;;67.22;38.75;;;9.00;99.90;;;;;;5033484;28;20064;-57
2024/03/04 03:38:54;;;;;;;70.82;40.05;;;8.90;99.90;;;;;;5033295;28;20022;-54
2024/03/04 03:41:20;;;;;;;64.15;38.85;;;8.90;99.90;;;;;;5032039;28;20392;-53
2024/03/04 03:43:46;;;;;;;65.43;37.00;;;8.90;99.90;;;;;;5048637;28;20120;-52
2024/03/04 03:46:11;;;;;;;69.68;38.45;;;8.80;99.90;;;;;;5032438;28;20101;-52
2024/03/04 03:48:37;;;;;;;62.08;36.88;;;8.80;99.90;;;;;;5033050;28;20017;-53
2024/03/04 03:51:02;;;;;;;69.78;40.13;;;8.80;99.90;;;;;;5033228;28;20504;-54
2024/03/04 03:53:28;;;;;;;70.32;40.17;;;8.70;99.90;;;;;;5033161;28;20025;-50
2024/03/04 03:55:54;;;;;;;67.95;39.28;;;8.70;99.90;;;;;;5033087;28;20445;-54
2024/03/04 03:58:19;;;;;;;69.28;37.55;;;8.70;99.90;;;;;;5033050;28;20022;-50
2024/03/04 04:00:45;;;;;;;68.43;39.03;;;8.60;99.90;;;;;;5032527;28;20111;-51
2024/03/04 04:03:11;;;;;;;70.10;39.05;;;8.60;99.90;;;;;;5033047;28;20021;-54
2024/03/04 04:05:36;;;;;;;78.57;42.70;;;8.60;99.90;;;;;;5032948;28;20105;-49
2024/03/04 04:08:02;;;;;;;79.63;41.88;;;8.60;99.90;;;;;;5032690;28;20100;-56
2024/03/04 04:10:28;;;;;;;71.93;40.60;;;8.50;99.90;;;;;;5032701;28;20032;-54
2024/03/04 04:12:53;;;;;;;74.10;41.63;;;8.50;99.90;;;;;;5031170;28;20029;-47
2024/03/04 04:15:18;;;;;;;71.43;39.47;;;8.50;99.90;;;;;;5032584;28;20030;-54
2024/03/04 04:17:45;;;;;;;70.07;39.88;;;8.50;99.90;;;;;;5032725;28;20033;-53
2024/03/04 04:20:12;;;;;;;67.07;38.72;;;8.50;99.90;;;;;;5032661;28;20108;-51
2024/03/04 04:22:37;;;;;;;74.45;41.28;;;8.50;99.90;;;;;;5032613;28;20344;-53
2024/03/04 04:25:03;;;;;;;72.45;39.92;;;8.40;99.90;;;;;;5032698;28;20026;-56
2024/03/04 04:27:28;;;;;;;66.93;37.72;;;8.40;99.90;;;;;;5032684;28;20504;-57
2024/03/04 04:29:54;;;;;;;76.10;40.50;;;8.40;99.90;;;;;;5032776;28;20060;-52
2024/03/04 04:32:20;;;;;;;79.93;41.10;;;8.40;99.90;;;;;;5031026;28;20155;-54
2024/03/04 04:34:45;;;;;;;76.60;40.92;;;8.40;99.90;;;;;;5032487;28;20401;-51
2024/03/04 04:37:11;;;;;;;76.15;40.30;;;8.40;99.90;;;;;;5032610;28;20490;-56
2024/03/04 04:39:40;;;;;;;71.95;40.33;;;8.40;99.90;;;;;;5032980;28;20030;-53
2024/03/04 04:42:06;;;;;;;68.72;37.15;;;8.40;99.90;;;;;;5031220;28;20025;-55
2024/03/04 04:44:32;;;;;;;82.35;41.55;;;8.40;99.90;;;;;;5032422;28;20045;-54
2024/03/04 04:46:58;;;;;;;71.90;40.40;;;8.40;99.90;;;;;;5047461;28;20049;-51
2024/03/04 04:49:24;;;;;;;72.00;39.85;;;8.40;99.90;;;;;;5032064;28;20030;-54
2024/03/04 04:51:50;;;;;;;71.05;38.80;;;8.40;99.90;;;;;;5032216;28;20385;-57
2024/03/04 04:54:15;;;;;;;70.32;38.80;;;8.30;99.90;;;;;;5032020;28;20033;-52
2024/03/04 04:56:41;;;;;;;74.80;40.10;;;8.30;99.90;;;;;;5032087;28;20071;-51
2024/03/04 04:59:07;;;;;;;70.55;38.70;;;8.20;99.90;;;;;;5031726;28;20032;-54
2024/03/04 05:01:33;;;;;;;66.93;38.25;;;8.20;99.90;;;;;;5030353;28;20120;-54
2024/03/04 05:03:59;;;;;;;67.43;37.00;;;8.20;99.90;;;;;;5032257;28;20039;-54
2024/03/04 05:06:24;;;;;;;59.70;34.63;;;8.10;99.90;;;;;;5031883;28;20021;-54
2024/03/04 05:08:51;;;;;;;55.92;31.58;;;8.10;99.90;;;;;;5030631;28;20021;-55
2024/03/04 05:11:17;;;;;;;53.08;30.67;;;7.90;99.90;;;;;;5031385;28;20036;-53
2024/03/04 05:13:44;;;;;;;52.95;31.45;;;7.80;99.90;;;;;;5031933;28;20029;-56
2024/03/04 05:16:11;;;;;;;49.08;29.00;;;;;;;;;;5031739;28;20029;-52
2024/03/04 05:18:37;;;;;;;46.95;28.67;;;7.60;99.90;;;;;;5032255;28;20456;-52
2024/03/04 05:21:03;;;;;;;59.60;30.90;;;7.60;99.90;;;;;;5030858;28;20017;-52
2024/03/04 05:23:29;;;;;;;49.72;28.50;;;7.60;99.90;;;;;;5032264;28;20437;-54
2024/03/04 05:25:55;;;;;;;47.13;28.00;;;7.50;99.90;;;;;;5031687;28;20025;-55
2024/03/04 05:28:20;;;;;;;44.15;24.35;;;7.50;99.90;;;;;;5031320;28;20021;-49
2024/03/04 05:30:46;;;;;;;42.45;23.63;;;7.50;99.90;;;;;;5030245;28;20030;-54
2024/03/04 05:33:11;;;;;;;39.65;23.25;;;7.40;99.90;;;;;;5031372;28;20026;-51
2024/03/04 05:35:37;;;;;;;37.95;21.02;;;7.30;99.90;;;;;;5031483;28;20108;-49
2024/03/04 05:38:03;;;;;;;53.63;27.75;;;7.30;99.90;;;;;;5031267;28;20467;-51
2024/03/04 05:40:28;;;;;;;46.38;25.08;;;7.20;99.90;;;;;;5031198;28;20033;-51
2024/03/04 05:42:54;;;;;;;43.10;24.58;;;;;;;;;;5030163;28;20053;-52
2024/03/04 05:45:20;;;;;;;56.97;27.70;;;7.20;99.90;;;;;;5030915;28;20025;-53
2024/03/04 05:47:46;;;;;;;40.78;24.88;;;7.10;99.90;;;;;;5031228;28;20088;-54
2024/03/04 05:50:14;;;;;;;48.75;27.23;;;7.10;99.90;;;;;;5030429;28;20048;-54
2024/03/04 05:52:45;;;;;;;45.92;25.48;;;7.20;99.90;;;;;;5030117;28;20087;-51
2024/03/04 05:55:11;;;;;;;52.33;28.45;;;7.10;99.90;;;;;;5030152;28;20377;-52
2024/03/04 05:57:37;;;;;;;56.92;30.63;;;7.20;99.90;;;;;;5029914;28;20040;-54
2024/03/04 06:00:04;;;;;;;55.97;29.80;;;7.20;99.90;;;;;;5031063;28;20034;-53
2024/03/04 06:02:30;;;;;;;61.90;31.73;;;7.20;99.90;;;;;;5031013;28;20496;-51
2024/03/04 06:04:56;;;;;;;60.13;31.42;;;7.40;99.90;;;;;;5031155;28;20485;-52
2024/03/04 06:07:22;;;;;;;57.45;30.67;;;7.30;99.90;;;;;;5029944;28;20028;-53
2024/03/04 06:09:47;;;;;;;59.08;30.95;;;7.50;99.90;;;;;;5032293;28;20045;-54
2024/03/04 06:12:13;;;;;;;53.47;28.02;;;7.50;99.90;;;;;;5033314;28;20033;-53
2024/03/04 06:14:39;;;;;;;45.75;25.20;;;7.40;99.90;;;;;;5035191;28;20038;-51
2024/03/04 06:17:05;;;;;;;54.70;28.25;;;7.30;99.90;;;;;;5035198;28;20415;-55
2024/03/04 06:19:31;;;;;;;42.17;23.30;;;7.20;99.90;;;;;;5033597;28;20068;-52
2024/03/04 06:21:57;;;;;;;43.72;25.58;;;7.20;99.90;;;;;;5034817;28;20021;-51
2024/03/04 06:24:22;;;;;;;44.45;24.90;;;7.20;99.90;;;;;;5035038;28;20021;-54
2024/03/04 06:26:48;;;;;;;43.58;24.08;;;7.00;99.90;;;;;;5033643;28;20025;-55
2024/03/04 06:29:13;;;;;;;45.60;24.25;;;7.00;99.90;;;;;;5034928;28;20112;-54
2024/03/04 06:31:39;;;;;;;39.45;24.25;;;7.00;99.90;;;;;;5034847;28;20029;-55
2024/03/04 06:34:04;;;;;;;60.97;30.40;;;7.10;99.90;;;;;;5034761;28;20424;-52
2024/03/04 06:36:30;;;;;;;50.28;27.42;;;7.20;99.90;;;;;;5034843;28;20029;-54
2024/03/04 06:38:55;;;;;;;52.08;26.83;;;7.30;99.90;;;;;;5034426;28;20473;-53
2024/03/04 06:41:21;;;;;;;44.13;27.00;;;7.30;99.90;;;;;;5034557;28;20423;-55
2024/03/04 06:43:46;;;;;;;47.35;26.25;;;7.30;99.90;;;;;;5034488;28;20362;-52
2024/03/04 06:46:12;;;;;;;53.20;28.13;;;7.40;99.90;;;;;;5034573;28;20144;-57
2024/03/04 06:48:38;;;;;;;46.38;25.95;;;7.60;99.90;;;;;;5034518;28;20103;-53
2024/03/04 06:51:03;;;;;;;46.17;25.10;;;7.80;99.90;;;;;;5034526;28;20488;-53
2024/03/04 06:53:29;;;;;;;46.28;24.48;;;7.70;99.90;;;;;;5032939;28;20156;-56
2024/03/04 06:55:55;;;;;;;48.20;25.65;;;7.60;99.90;;;;;;5034210;28;20029;-54
2024/03/04 06:58:22;;;;;;;45.20;24.58;;;7.70;99.90;;;;;;5034220;28;20036;-54
2024/03/04 07:00:50;;;;;;;42.10;24.60;;;7.60;99.90;;;;;;5034382;28;20090;-55
2024/03/04 07:03:17;;;;;;;35.75;21.77;;;7.60;99.90;;;;;;5034226;28;20025;-54
2024/03/04 07:05:43;;;;;;;41.42;23.95;;;7.60;99.90;;;;;;5034112;28;20083;-51
2024/03/04 07:08:08;;;;;;;48.60;25.27;;;7.70;99.90;;;;;;5034065;28;20135;-52
2024/03/04 07:10:36;;;;;;;36.70;21.40;;;7.70;99.90;;;;;;5034032;28;20069;-51
2024/03/04 07:13:02;;;;;;;39.08;22.60;;;7.80;99.90;;;;;;5033800;28;20021;-53
2024/03/04 07:15:27;;;;;;;35.08;22.63;;;7.80;99.90;;;;;;5034036;28;20040;-57
2024/03/04 07:17:53;;;;;;;34.33;21.40;;;7.90;99.90;;;;;;5032611;28;20402;-55
2024/03/04 07:20:18;;;;;;;39.95;23.58;;;7.80;99.90;;;;;;5033902;28;20030;-52
2024/03/04 07:22:44;;;;;;;35.63;21.00;;;7.80;99.90;;;;;;5032769;28;20501;-53
2024/03/04 07:25:09;;;;;;;35.65;21.63;;;7.90;99.90;;;;;;5033761;28;20025;-58
2024/03/04 07:27:35;;;;;;;37.25;21.25;;;8.00;99.90;;;;;;5033654;28;20017;-54
2024/03/04 07:30:00;;;;;;;39.53;22.98;;;8.00;99.90;;;;;;5033796;28;20474;-53
2024/03/04 07:32:27;;;;;;;41.47;22.75;;;8.20;99.90;;;;;;5033320;28;20025;-50
2024/03/04 07:34:52;;;;;;;41.47;23.02;;;8.30;99.90;;;;;;5033819;28;20519;-52
2024/03/04 07:37:18;;;;;;;42.92;23.55;;;8.50;99.90;;;;;;5033748;28;20034;-53
2024/03/04 07:39:44;;;;;;;45.92;24.70;;;8.60;99.90;;;;;;5033660;28;20029;-56
2024/03/04 07:42:09;;;;;;;41.92;23.13;;;8.80;99.90;;;;;;5033655;28;20103;-52
2024/03/04 07:44:41;;;;;;;46.67;23.45;;;9.00;99.90;;;;;;5034066;28;20056;-54
2024/03/04 07:47:07;;;;;;;46.08;22.95;;;9.10;99.90;;;;;;5033306;28;20021;-54
2024/03/04 07:49:33;;;;;;;38.13;22.30;;;9.20;99.90;;;;;;5033267;28;20079;-52
2024/03/04 07:51:58;;;;;;;39.80;22.00;;;9.30;99.90;;;;;;5033346;28;20100;-55
2024/03/04 07:54:24;;;;;;;42.17;23.75;;;9.30;99.90;;;;;;5033291;28;20021;-51
2024/03/04 07:56:49;;;;;;;40.97;23.08;;;9.40;99.90;;;;;;5033215;28;20022;-53
2024/03/04 07:59:15;;;;;;;39.92;21.63;;;9.40;99.90;;;;;;5032960;28;20021;-50
2024/03/04 08:01:50;;;;;;;40.22;21.73;;;9.40;99.90;;;;;;5054436;23;20068;-50
2024/03/04 08:04:16;;;;;;;43.50;23.65;;;9.40;99.90;;;;;;5033037;28;20021;-48
2024/03/04 08:06:41;;;;;;;38.47;21.05;;;9.40;99.90;;;;;;5014098;28;20029;-53
2024/03/04 08:09:07;;;;;;;38.70;22.15;;;9.40;99.90;;;;;;5032741;28;20020;-52
2024/03/04 08:11:33;;;;;;;39.15;22.13;;;9.40;99.90;;;;;;5032515;28;20026;-51
2024/03/04 08:13:59;;;;;;;41.22;21.23;;;9.40;99.90;;;;;;5048248;28;20071;-53
2024/03/04 08:16:25;;;;;;;40.10;22.13;;;9.40;99.90;;;;;;5032675;28;20436;-49
2024/03/04 08:18:50;;;;;;;37.55;21.88;;;9.40;99.90;;;;;;5032831;28;20029;-52
2024/03/04 08:21:16;;;;;;;38.15;21.90;;;9.40;99.90;;;;;;5031547;28;20033;-50
2024/03/04 08:23:42;;;;;;;36.63;20.63;;;9.40;99.90;;;;;;5032499;28;20025;-53
2024/03/04 08:26:07;;;;;;;37.13;21.58;;;9.30;99.90;;;;;;5032537;28;20476;-50
2024/03/04 08:28:33;;;;;;;42.92;22.00;;;9.40;99.90;;;;;;5032594;28;20029;-51
2024/03/04 08:30:59;;;;;;;38.20;21.05;;;9.40;99.90;;;;;;5032399;28;20029;-53
2024/03/04 08:33:24;;;;;;;34.20;20.30;;;9.50;99.90;;;;;;5032055;28;20116;-48
2024/03/04 08:35:50;;;;;;;37.20;21.42;;;9.50;99.90;;;;;;5032529;28;20382;-57
2024/03/04 08:38:15;;;;;;;39.35;23.05;;;9.50;99.90;;;;;;5031477;28;20026;-49
2024/03/04 08:40:41;;;;;;;37.67;20.23;;;9.60;99.90;;;;;;5032140;28;20026;-53
2024/03/04 08:43:07;;;;;;;36.95;20.88;;;9.70;99.90;;;;;;5032219;28;20030;-50
2024/03/04 08:45:33;;;;;;;36.95;20.58;;;9.70;99.90;;;;;;5032259;28;20017;-51
2024/03/04 08:47:58;;;;;;;33.97;19.70;;;9.80;99.90;;;;;;5032063;28;20021;-50
2024/03/04 08:50:24;;;;;;;35.50;20.17;;;9.90;99.90;;;;;;5030776;28;20032;-53
2024/03/04 08:52:49;;;;;;;39.58;22.27;;;10.00;99.90;;;;;;5031997;28;20034;-48
2024/03/04 08:55:15;;;;;;;36.53;20.77;;;10.00;99.90;;;;;;5030708;28;20031;-50
2024/03/04 08:57:41;;;;;;;34.67;19.50;;;10.00;99.90;;;;;;5031998;28;20029;-52
2024/03/04 09:00:10;;;;;;;34.75;21.38;;;9.90;99.90;;;;;;5035438;28;20021;-49
2024/03/04 09:02:36;;;;;;;35.28;20.65;;;10.00;99.90;;;;;;5033401;28;20032;-52
2024/03/04 09:05:01;;;;;;;31.77;20.02;;;10.10;99.90;;;;;;5031506;28;20108;-56
2024/03/04 09:07:30;;;;;;;32.85;21.38;;;10.20;99.90;;;;;;5031501;28;20021;-53
2024/03/04 09:09:55;;;;;;;32.65;20.08;;;10.20;99.90;;;;;;5031709;28;20060;-52
2024/03/04 09:12:21;;;;;;;36.45;20.73;;;10.20;99.90;;;;;;5030970;28;20052;-49
2024/03/04 09:14:47;;;;;;;29.52;19.15;;;10.30;99.90;;;;;;5030119;28;20438;-53
2024/03/04 09:17:12;;;;;;;33.40;20.08;;;10.20;99.90;;;;;;5031824;28;20064;-52
2024/03/04 09:19:41;;;;;;;36.35;21.13;;;10.30;99.90;;;;;;5017592;28;20026;-52
2024/03/04 09:22:07;;;;;;;36.58;21.63;;;10.40;99.90;;;;;;5011949;28;20071;-51
2024/03/04 09:24:32;;;;;;;39.15;19.73;;;10.50;99.90;;;;;;5024378;28;20028;-49
2024/03/04 09:26:58;;;;;;;30.65;20.15;;;10.60;99.90;;;;;;5029814;28;20018;-50
2024/03/04 09:29:23;;;;;;;37.20;20.40;;;10.70;99.90;;;;;;5030856;28;20052;-55
2024/03/04 09:31:49;;;;;;;33.55;19.30;;;10.80;99.90;;;;;;5029600;28;20108;-53
2024/03/04 09:34:14;;;;;;;35.28;21.27;;;10.90;99.90;;;;;;5031300;28;20049;-48
2024/03/04 09:36:40;;;;;;;32.97;19.77;;;11.00;99.90;;;;;;5031312;28;20373;-51
2024/03/04 09:39:05;;;;;;;48.15;20.30;;;11.10;99.90;;;;;;5031452;28;20108;-47
2024/03/04 09:41:35;;;;;;;31.13;20.63;;;11.20;99.90;;;;;;5030651;28;20030;-47
2024/03/04 09:44:01;;;;;;;31.67;19.75;;;11.30;99.90;;;;;;5029795;28;20456;-48
2024/03/04 09:46:28;;;;;;;33.33;19.98;;;11.40;99.90;;;;;;5030349;28;20022;-54
2024/03/04 09:48:54;;;;;;;34.28;20.20;;;11.30;99.90;;;;;;5029521;28;20497;-52
2024/03/04 09:51:22;;;;;;;32.15;19.95;;;11.40;99.90;;;;;;5031344;28;20037;-51
2024/03/04 09:53:50;;;;;;;30.95;18.45;;;11.50;99.90;;;;;;5030591;28;20382;-55
2024/03/04 09:56:16;;;;;;;30.67;19.65;;;11.50;99.90;;;;;;5031177;28;20097;-52
2024/03/04 09:58:42;;;;;;;28.75;18.83;;;11.40;99.90;;;;;;5031129;28;20109;-49
2024/03/04 10:01:08;;;;;;;30.40;18.95;;;11.50;99.90;;;;;;5030571;28;20092;-49
2024/03/04 10:03:35;;;;;;;31.17;20.13;;;11.50;99.90;;;;;;5028253;28;20033;-47
2024/03/04 10:06:02;;;;;;;28.90;18.13;;;11.50;99.90;;;;;;5030616;28;20022;-48
2024/03/04 10:08:27;;;;;;;28.13;18.48;;;11.40;99.90;;;;;;5029337;28;20052;-53
2024/03/04 10:10:53;;;;;;;31.83;19.85;;;11.40;99.90;;;;;;5031298;28;20029;-51
2024/03/04 10:13:21;;;;;;;29.75;18.48;;;11.40;99.90;;;;;;5031815;28;20032;-48
2024/03/04 10:15:48;;;;;;;29.65;17.73;;;11.40;99.90;;;;;;5031029;28;20022;-49
2024/03/04 10:18:14;;;;;;;29.60;18.08;;;11.40;99.90;;;;;;5030397;28;20022;-46
2024/03/04 10:20:40;;;;;;;30.63;20.50;;;11.40;99.90;;;;;;5029293;28;20117;-48
2024/03/04 10:23:06;;;;;;;30.60;19.48;;;11.50;99.90;;;;;;5031002;28;20171;-52
2024/03/04 10:25:32;;;;;;;33.95;19.45;;;11.50;99.90;;;;;;5029595;28;20033;-53
2024/03/04 10:27:58;;;;;;;34.13;19.23;;;11.50;99.90;;;;;;5030991;28;20026;-52
2024/03/04 10:30:27;;;;;;;28.27;19.23;;;11.50;99.90;;;;;;5030124;28;20500;-51
2024/03/04 10:33:02;;;;;;;31.02;18.40;;;11.70;99.90;;;;;;5030309;28;20408;-49
2024/03/04 10:35:28;;;;;;;;;;;11.70;99.90;;;;;;5029931;28;20029;-51
2024/03/04 10:37:59;;;;;;;;;;;11.70;99.90;;;;;;5031102;28;19905;-51
2024/03/04 10:40:25;;;;;;;27.92;18.88;;;11.70;99.90;;;;;;5029798;28;19909;-54
2024/03/04 10:42:50;;;;;;;31.30;18.35;;;11.80;99.90;;;;;;5030725;28;20066;-51
2024/03/04 10:45:16;;;;;;;29.63;18.02;;;11.60;99.90;;;;;;5030407;28;20359;-49
2024/03/04 10:47:44;;;;;;;73.13;41.17;;;11.70;99.90;;;;;;5030423;28;20140;-47
2024/03/04 10:50:11;;;;;;;58.45;33.85;;;11.80;99.90;;;;;;5031002;28;20033;-45
2024/03/04 10:52:37;;;;;;;31.75;21.15;;;11.70;99.90;;;;;;5030464;28;20075;-51
2024/03/04 10:55:03;;;;;;;30.65;19.17;;;11.70;99.90;;;;;;5029340;28;20405;-48
2024/03/04 10:57:30;;;;;;;30.45;18.80;;;11.70;99.90;;;;;;5033170;28;20040;-44
2024/03/04 10:59:58;;;;;;;29.90;19.55;;;11.80;99.90;;;;;;5037741;28;20512;-52
2024/03/04 11:02:45;;;;;;;29.35;20.10;;;11.80;99.90;;;;;;5034513;28;20493;-48
2024/03/04 11:05:11;;;;;;;27.95;18.48;;;11.80;99.90;;;;;;5037157;28;20030;-47
2024/03/04 11:07:43;;;;;;;32.35;19.35;;;11.70;99.90;;;;;;5034344;28;20091;-46
2024/03/04 11:10:26;;;;;;;32.95;20.10;;;11.60;99.90;;;;;;5033961;28;20029;-48
2024/03/04 11:13:20;;;;;;;29.73;20.25;;;11.70;99.90;;;;;;5024458;28;20025;-47
2024/03/04 11:15:56;;;;;;;31.60;18.92;;;11.70;99.90;;;;;;5019423;28;20037;-50
2024/03/04 11:18:36;;;;;;;28.13;18.92;;;11.80;99.90;;;;;;5024701;28;20108;-51
2024/03/04 11:21:03;;;;;;;28.88;18.15;;;11.70;99.90;;;;;;5031953;28;20091;-44
2024/03/04 11:23:29;;;;;;;31.63;19.20;;;11.60;99.90;;;;;;5032720;28;20030;-48
2024/03/04 11:25:56;;;;;;;34.58;19.85;;;11.60;99.90;;;;;;5027646;28;20105;-48
2024/03/04 11:28:22;;;;;;;28.63;19.25;;;11.60;99.90;;;;;;5023262;28;20021;-46
2024/03/04 11:30:50;;;;;;;27.40;18.38;;;11.50;99.90;;;;;;5023440;28;20029;-44
2024/03/04 11:33:38;;;;;;;31.63;19.73;;;11.60;99.90;;;;;;5019794;28;20025;-43
2024/03/04 11:36:04;;;;;;;30.95;20.38;;;11.50;99.90;;;;;;5033803;28;20022;-43
2024/03/04 11:38:30;;;;;;;33.90;20.70;;;11.40;99.90;;;;;;5033669;28;20030;-46
2024/03/04 11:41:00;;;;;;;33.70;19.48;;;11.50;99.90;;;;;;5034471;28;20075;-44
2024/03/04 11:43:41;;;;;;;40.42;21.55;;;11.50;99.90;;;;;;5032066;28;20021;-47
2024/03/04 11:46:18;;;;;;;36.40;21.65;;;11.60;99.90;;;;;;5033150;28;20041;-45
2024/03/04 11:48:46;;;;;;;32.95;19.48;;;11.60;99.90;;;;;;5033255;28;20022;-46
2024/03/04 11:51:12;;;;;;;31.25;19.92;;;11.50;99.90;;;;;;5033312;28;20052;-48
2024/03/04 11:53:42;;;;;;;29.27;17.70;;;11.60;99.90;;;;;;5032969;28;20111;-45
2024/03/04 11:56:07;;;;;;;30.73;19.52;;;11.60;99.90;;;;;;5032207;28;20038;-51
2024/03/04 11:58:33;;;;;;;29.73;20.15;;;11.70;99.90;;;;;;5032784;28;20106;-47
2024/03/04 12:01:00;;;;;;;28.65;18.35;;;11.70;99.90;;;;;;5032960;28;20038;-45
2024/03/04 12:03:26;;;;;;;28.85;18.30;;;11.70;99.90;;;;;;5022696;28;20048;-43
2024/03/04 12:05:52;;;;;;;31.35;19.48;;;11.80;99.90;;;;;;5020471;28;20022;-44
2024/03/04 12:08:18;;;;;;;34.00;18.70;;;11.80;99.90;;;;;;5023122;28;20029;-43
2024/03/04 12:10:44;;;;;;;28.85;18.10;;;11.80;99.90;;;;;;5033001;28;20404;-45
2024/03/04 12:13:10;;;;;;;27.45;18.63;;;12.00;99.90;;;;;;5032955;28;20397;-45
2024/03/04 12:15:37;;;;;;;28.52;19.55;;;12.10;99.90;;;;;;5031980;28;20686;-44
2024/03/04 12:18:03;;;;;;;34.67;19.70;;;12.00;99.90;;;;;;5028116;28;20029;-45
2024/03/04 12:20:29;;;;;;;30.48;18.38;;;12.10;99.90;;;;;;5026014;28;20021;-46
2024/03/04 12:22:56;;;;;;;31.40;20.42;;;12.00;99.90;;;;;;5011415;28;20022;-45
2024/03/04 12:25:25;;;;;;;27.67;18.85;;;12.00;99.90;;;;;;5015413;28;20038;-45
2024/03/04 12:27:54;;;;;;;35.35;20.40;;;12.00;99.90;;;;;;5020035;28;20026;-48
2024/03/04 12:30:21;;;;;;;28.77;19.20;;;12.00;99.90;;;;;;5021543;28;20371;-45
2024/03/04 12:32:50;;;;;;;30.77;20.00;;;12.10;99.90;;;;;;5018243;28;20676;-45